sensor_id;sensor_type;location;lat;lon;timestamp;pressure;altitude;pressure_sealevel;temperature;humidity
57827;BME280;43656;57.746;11.780;2023-12-20T00:01:16;99761.13;;;3.27;100.00
57827;BME280;43656;57.746;11.780;2023-12-20T00:03:41;99727.22;;;3.06;100.00
57827;BME280;43656;57.746;11.780;2023-12-20T00:06:07;99753.34;;;3.26;100.00
57827;BME280;43656;57.746;11.780;2023-12-20T00:08:32;99761.13;;;3.27;100.00
57827;BME280;43656;57.746;11.780;2023-12-20T00:10:57;99757.84;;;3.25;100.00
57827;BME280;43656;57.746;11.780;2023-12-20T00:13:23;99743.13;;;3.15;100.00
57827;BME280;43656;57.746;11.780;2023-12-20T00:15:48;99749.66;;;3.27;100.00
57827;BME280;43656;57.746;11.780;2023-12-20T00:18:13;99753.81;;;3.29;100.00
57827;BME280;43656;57.746;11.780;2023-12-20T00:20:39;99747.56;;;3.22;100.00
57827;BME280;43656;57.746;11.780;2023-12-20T00:23:04;99750.81;;;3.33;100.00
57827;BME280;43656;57.746;11.780;2023-12-20T00:25:30;99754.13;;;3.35;100.00
57827;BME280;43656;57.746;11.780;2023-12-20T00:27:55;99739.47;;;3.39;100.00
57827;BME280;43656;57.746;11.780;2023-12-20T00:30:20;99735.63;;;3.41;100.00
57827;BME280;43656;57.746;11.780;2023-12-20T00:32:46;99733.59;;;3.43;100.00
57827;BME280;43656;57.746;11.780;2023-12-20T00:35:15;99729.91;;;3.44;100.00
57827;BME280;43656;57.746;11.780;2023-12-20T00:37:42;99727.91;;;3.46;100.00
57827;BME280;43656;57.746;11.780;2023-12-20T00:40:08;99723.06;;;3.50;100.00
57827;BME280;43656;57.746;11.780;2023-12-20T00:42:33;99708.63;;;3.44;100.00
57827;BME280;43656;57.746;11.780;2023-12-20T00:44:59;99681.00;;;3.30;100.00
57827;BME280;43656;57.746;11.780;2023-12-20T00:47:25;99706.19;;;3.43;100.00
57827;BME280;43656;57.746;11.780;2023-12-20T00:49:50;99697.72;;;3.39;100.00
57827;BME280;43656;57.746;11.780;2023-12-20T00:52:16;99710.47;;;3.44;100.00
57827;BME280;43656;57.746;11.780;2023-12-20T00:54:44;99664.94;;;3.24;100.00
57827;BME280;43656;57.746;11.780;2023-12-20T00:57:10;99675.22;;;3.27;100.00
57827;BME280;43656;57.746;11.780;2023-12-20T00:59:35;99692.13;;;3.34;100.00
57827;BME280;43656;57.746;11.780;2023-12-20T01:02:01;99701.75;;;3.35;100.00
57827;BME280;43656;57.746;11.780;2023-12-20T01:04:26;99689.66;;;3.33;100.00
57827;BME280;43656;57.746;11.780;2023-12-20T01:06:52;99677.00;;;3.35;100.00
57827;BME280;43656;57.746;11.780;2023-12-20T01:09:18;99682.03;;;3.44;100.00
57827;BME280;43656;57.746;11.780;2023-12-20T01:11:44;99670.94;;;3.41;100.00
57827;BME280;43656;57.746;11.780;2023-12-20T01:14:10;99673.81;;;3.54;100.00
57827;BME280;43656;57.746;11.780;2023-12-20T01:16:35;99658.88;;;3.53;100.00
57827;BME280;43656;57.746;11.780;2023-12-20T01:19:01;99637.22;;;3.41;100.00
57827;BME280;43656;57.746;11.780;2023-12-20T01:21:26;99651.25;;;3.50;100.00
57827;BME280;43656;57.746;11.780;2023-12-20T01:23:52;99658.41;;;3.49;100.00
57827;BME280;43656;57.746;11.780;2023-12-20T01:26:17;99625.13;;;3.39;100.00
57827;BME280;43656;57.746;11.780;2023-12-20T01:28:42;99638.78;;;3.50;100.00
57827;BME280;43656;57.746;11.780;2023-12-20T01:31:08;99640.63;;;3.50;100.00
57827;BME280;43656;57.746;11.780;2023-12-20T01:33:33;99640.00;;;3.48;100.00
57827;BME280;43656;57.746;11.780;2023-12-20T01:35:59;99638.78;;;3.50;100.00
57827;BME280;43656;57.746;11.780;2023-12-20T01:38:25;99622.38;;;3.47;100.00
57827;BME280;43656;57.746;11.780;2023-12-20T01:40:50;99524.41;;;2.91;100.00
57827;BME280;43656;57.746;11.780;2023-12-20T01:43:16;99613.19;;;3.49;100.00
57827;BME280;43656;57.746;11.780;2023-12-20T01:45:41;99611.00;;;3.53;100.00
57827;BME280;43656;57.746;11.780;2023-12-20T01:48:08;99594.41;;;3.51;100.00
57827;BME280;43656;57.746;11.780;2023-12-20T01:50:36;99592.38;;;3.53;100.00
57827;BME280;43656;57.746;11.780;2023-12-20T01:53:02;99580.47;;;3.49;100.00
57827;BME280;43656;57.746;11.780;2023-12-20T01:55:29;99589.56;;;3.55;100.00
57827;BME280;43656;57.746;11.780;2023-12-20T01:57:56;99577.06;;;3.55;100.00
57827;BME280;43656;57.746;11.780;2023-12-20T02:00:22;99570.94;;;3.55;100.00
57827;BME280;43656;57.746;11.780;2023-12-20T02:02:50;99574.22;;;3.57;100.00
57827;BME280;43656;57.746;11.780;2023-12-20T02:05:16;99561.75;;;3.57;100.00
57827;BME280;43656;57.746;11.780;2023-12-20T02:07:43;99560.91;;;3.57;100.00
57827;BME280;43656;57.746;11.780;2023-12-20T02:10:09;99563.94;;;3.53;100.00
57827;BME280;43656;57.746;11.780;2023-12-20T02:12:34;99531.13;;;3.46;100.00
57827;BME280;43656;57.746;11.780;2023-12-20T02:15:01;99550.13;;;3.58;100.00
57827;BME280;43656;57.746;11.780;2023-12-20T02:17:27;99549.91;;;3.60;100.00
57827;BME280;43656;57.746;11.780;2023-12-20T02:19:52;99549.75;;;3.61;100.00
57827;BME280;43656;57.746;11.780;2023-12-20T02:22:18;99532.94;;;3.61;100.00
57827;BME280;43656;57.746;11.780;2023-12-20T02:24:43;99503.72;;;3.46;100.00
57827;BME280;43656;57.746;11.780;2023-12-20T02:27:08;99522.50;;;3.59;100.00
57827;BME280;43656;57.746;11.780;2023-12-20T02:29:35;99504.69;;;3.60;100.00
57827;BME280;43656;57.746;11.780;2023-12-20T02:32:02;99503.50;;;3.62;100.00
57827;BME280;43656;57.746;11.780;2023-12-20T02:34:28;99500.84;;;3.62;100.00
57827;BME280;43656;57.746;11.780;2023-12-20T02:36:55;99497.81;;;3.65;100.00
57827;BME280;43656;57.746;11.780;2023-12-20T02:39:21;99469.03;;;3.54;100.00
57827;BME280;43656;57.746;11.780;2023-12-20T02:41:47;99490.66;;;3.66;100.00
57827;BME280;43656;57.746;11.780;2023-12-20T02:44:13;99490.47;;;3.67;100.00
57827;BME280;43656;57.746;11.780;2023-12-20T02:46:38;99478.00;;;3.68;100.00
57827;BME280;43656;57.746;11.780;2023-12-20T02:49:06;99474.97;;;3.71;100.00
57827;BME280;43656;57.746;11.780;2023-12-20T02:51:32;99475.59;;;3.73;100.00
57827;BME280;43656;57.746;11.780;2023-12-20T02:53:57;99452.31;;;3.60;100.00
57827;BME280;43656;57.746;11.780;2023-12-20T02:56:23;99468.44;;;3.73;100.00
57827;BME280;43656;57.746;11.780;2023-12-20T02:58:48;99469.91;;;3.76;100.00
57827;BME280;43656;57.746;11.780;2023-12-20T03:01:14;99452.22;;;3.68;100.00
57827;BME280;43656;57.746;11.780;2023-12-20T03:03:40;99459.09;;;3.78;100.00
57827;BME280;43656;57.746;11.780;2023-12-20T03:06:05;99448.44;;;3.78;100.00
57827;BME280;43656;57.746;11.780;2023-12-20T03:08:30;99458.69;;;3.81;100.00
57827;BME280;43656;57.746;11.780;2023-12-20T03:10:56;99447.06;;;3.82;100.00
57827;BME280;43656;57.746;11.780;2023-12-20T03:13:22;99441.91;;;3.80;100.00
57827;BME280;43656;57.746;11.780;2023-12-20T03:15:48;99441.53;;;3.83;100.00
57827;BME280;43656;57.746;11.780;2023-12-20T03:18:13;99450.31;;;3.84;100.00
57827;BME280;43656;57.746;11.780;2023-12-20T03:20:38;99441.97;;;3.87;100.00
57827;BME280;43656;57.746;11.780;2023-12-20T03:23:04;99443.69;;;3.94;100.00
57827;BME280;43656;57.746;11.780;2023-12-20T03:25:30;99449.19;;;3.93;100.00
57827;BME280;43656;57.746;11.780;2023-12-20T03:27:56;99423.59;;;3.92;100.00
57827;BME280;43656;57.746;11.780;2023-12-20T03:30:21;99341.59;;;3.38;100.00
57827;BME280;43656;57.746;11.780;2023-12-20T03:32:47;99403.44;;;3.83;100.00
57827;BME280;43656;57.746;11.780;2023-12-20T03:35:12;99404.22;;;3.76;100.00
57827;BME280;43656;57.746;11.780;2023-12-20T03:37:38;99393.31;;;3.71;100.00
57827;BME280;43656;57.746;11.780;2023-12-20T03:40:03;99396.47;;;3.60;100.00
57827;BME280;43656;57.746;11.780;2023-12-20T03:42:29;99406.13;;;3.61;100.00
57827;BME280;43656;57.746;11.780;2023-12-20T03:44:54;99397.88;;;3.56;100.00
57827;BME280;43656;57.746;11.780;2023-12-20T03:47:20;99379.19;;;3.49;100.00
57827;BME280;43656;57.746;11.780;2023-12-20T03:49:45;99383.38;;;3.59;100.00
57827;BME280;43656;57.746;11.780;2023-12-20T03:52:10;99373.69;;;3.51;100.00
57827;BME280;43656;57.746;11.780;2023-12-20T03:54:36;99375.19;;;3.60;100.00
57827;BME280;43656;57.746;11.780;2023-12-20T03:57:01;99370.31;;;3.64;100.00
57827;BME280;43656;57.746;11.780;2023-12-20T03:59:26;99367.66;;;3.64;100.00
57827;BME280;43656;57.746;11.780;2023-12-20T04:01:52;99374.63;;;3.65;100.00
57827;BME280;43656;57.746;11.780;2023-12-20T04:04:17;99376.06;;;3.67;100.00
57827;BME280;43656;57.746;11.780;2023-12-20T04:06:43;99379.75;;;3.66;100.00
57827;BME280;43656;57.746;11.780;2023-12-20T04:09:08;99395.78;;;3.73;100.00
57827;BME280;43656;57.746;11.780;2023-12-20T04:11:37;99398.34;;;3.81;100.00
57827;BME280;43656;57.746;11.780;2023-12-20T04:14:02;99393.19;;;3.80;100.00
57827;BME280;43656;57.746;11.780;2023-12-20T04:16:30;99365.44;;;3.67;100.00
57827;BME280;43656;57.746;11.780;2023-12-20T04:18:55;99340.16;;;3.57;100.00
57827;BME280;43656;57.746;11.780;2023-12-20T04:21:20;99371.41;;;3.69;100.00
57827;BME280;43656;57.746;11.780;2023-12-20T04:23:46;99368.75;;;3.69;100.00
57827;BME280;43656;57.746;11.780;2023-12-20T04:26:11;99364.63;;;3.67;100.00
57827;BME280;43656;57.746;11.780;2023-12-20T04:28:37;99361.94;;;3.67;100.00
57827;BME280;43656;57.746;11.780;2023-12-20T04:31:02;99348.28;;;3.70;100.00
57827;BME280;43656;57.746;11.780;2023-12-20T04:33:28;99347.06;;;3.72;100.00
57827;BME280;43656;57.746;11.780;2023-12-20T04:35:53;99315.25;;;3.58;100.00
57827;BME280;43656;57.746;11.780;2023-12-20T04:38:18;99312.81;;;3.63;100.00
57827;BME280;43656;57.746;11.780;2023-12-20T04:40:44;99326.81;;;3.71;100.00
57827;BME280;43656;57.746;11.780;2023-12-20T04:43:09;99327.44;;;3.73;100.00
57827;BME280;43656;57.746;11.780;2023-12-20T04:45:35;99322.75;;;3.75;100.00
57827;BME280;43656;57.746;11.780;2023-12-20T04:48:01;99324.22;;;3.78;100.00
57827;BME280;43656;57.746;11.780;2023-12-20T04:50:27;99319.06;;;3.76;100.00
57827;BME280;43656;57.746;11.780;2023-12-20T04:52:53;99312.13;;;3.75;100.00
57827;BME280;43656;57.746;11.780;2023-12-20T04:55:18;99312.94;;;3.76;100.00
57827;BME280;43656;57.746;11.780;2023-12-20T04:57:43;99313.31;;;3.73;100.00
57827;BME280;43656;57.746;11.780;2023-12-20T05:00:09;99311.47;;;3.73;100.00
57827;BME280;43656;57.746;11.780;2023-12-20T05:02:36;99307.63;;;3.76;100.00
57827;BME280;43656;57.746;11.780;2023-12-20T05:05:01;99311.91;;;3.77;100.00
57827;BME280;43656;57.746;11.780;2023-12-20T05:07:27;99293.50;;;3.75;100.00
57827;BME280;43656;57.746;11.780;2023-12-20T05:09:52;99298.22;;;3.80;100.00
57827;BME280;43656;57.746;11.780;2023-12-20T05:12:17;99289.25;;;3.81;100.00
57827;BME280;43656;57.746;11.780;2023-12-20T05:14:43;99278.22;;;3.84;100.00
57827;BME280;43656;57.746;11.780;2023-12-20T05:17:08;99285.19;;;3.85;100.00
57827;BME280;43656;57.746;11.780;2023-12-20T05:19:34;99269.16;;;3.79;100.00
57827;BME280;43656;57.746;11.780;2023-12-20T05:22:02;99271.66;;;3.87;100.00
57827;BME280;43656;57.746;11.780;2023-12-20T05:24:28;99266.34;;;3.87;100.00
57827;BME280;43656;57.746;11.780;2023-12-20T05:26:53;99262.44;;;3.83;100.00
57827;BME280;43656;57.746;11.780;2023-12-20T05:29:19;99268.63;;;3.90;100.00
57827;BME280;43656;57.746;11.780;2023-12-20T05:31:44;99242.13;;;3.75;100.00
57827;BME280;43656;57.746;11.780;2023-12-20T05:34:10;99268.63;;;3.90;100.00
57827;BME280;43656;57.746;11.780;2023-12-20T05:36:36;99266.41;;;3.93;100.00
57827;BME280;43656;57.746;11.780;2023-12-20T05:39:01;99247.53;;;3.88;100.00
57827;BME280;43656;57.746;11.780;2023-12-20T05:41:28;99237.28;;;3.85;100.00
57827;BME280;43656;57.746;11.780;2023-12-20T05:43:54;99259.75;;;4.04;100.00
57827;BME280;43656;57.746;11.780;2023-12-20T05:46:19;99263.66;;;4.08;100.00
57827;BME280;43656;57.746;11.780;2023-12-20T05:48:44;99244.00;;;4.09;100.00
57827;BME280;43656;57.746;11.780;2023-12-20T05:51:13;99250.53;;;4.07;100.00
57827;BME280;43656;57.746;11.780;2023-12-20T05:53:38;99247.03;;;4.06;100.00
57827;BME280;43656;57.746;11.780;2023-12-20T05:56:04;99239.47;;;4.10;100.00
57827;BME280;43656;57.746;11.780;2023-12-20T05:58:30;99237.41;;;4.05;100.00
57827;BME280;43656;57.746;11.780;2023-12-20T06:00:55;99236.56;;;3.98;100.00
57827;BME280;43656;57.746;11.780;2023-12-20T06:03:20;99200.81;;;3.79;100.00
57827;BME280;43656;57.746;11.780;2023-12-20T06:05:46;99245.94;;;3.94;100.00
57827;BME280;43656;57.746;11.780;2023-12-20T06:08:11;99234.47;;;3.93;100.00
57827;BME280;43656;57.746;11.780;2023-12-20T06:10:37;99221.94;;;3.87;100.00
57827;BME280;43656;57.746;11.780;2023-12-20T06:13:02;99228.72;;;3.90;100.00
57827;BME280;43656;57.746;11.780;2023-12-20T06:15:29;99210.81;;;3.77;100.00
57827;BME280;43656;57.746;11.780;2023-12-20T06:17:54;99225.00;;;3.84;100.00
57827;BME280;43656;57.746;11.780;2023-12-20T06:20:20;99227.84;;;3.83;100.00
57827;BME280;43656;57.746;11.780;2023-12-20T06:22:45;99219.22;;;3.81;100.00
57827;BME280;43656;57.746;11.780;2023-12-20T06:25:10;99224.13;;;3.77;100.00
57827;BME280;43656;57.746;11.780;2023-12-20T06:27:36;99218.78;;;3.77;100.00
57827;BME280;43656;57.746;11.780;2023-12-20T06:30:02;99229.25;;;3.79;100.00
57827;BME280;43656;57.746;11.780;2023-12-20T06:32:27;99222.47;;;3.76;100.00
57827;BME280;43656;57.746;11.780;2023-12-20T06:34:54;99225.34;;;3.74;100.00
57827;BME280;43656;57.746;11.780;2023-12-20T06:37:19;99205.66;;;3.69;100.00
57827;BME280;43656;57.746;11.780;2023-12-20T06:39:45;99205.84;;;3.67;100.00
57827;BME280;43656;57.746;11.780;2023-12-20T06:42:12;99204.19;;;3.66;100.00
57827;BME280;43656;57.746;11.780;2023-12-20T06:44:38;99196.59;;;3.63;100.00
57827;BME280;43656;57.746;11.780;2023-12-20T06:47:04;99205.59;;;3.62;100.00
57827;BME280;43656;57.746;11.780;2023-12-20T06:49:29;99192.47;;;3.61;100.00
57827;BME280;43656;57.746;11.780;2023-12-20T06:51:55;99189.22;;;3.59;100.00
57827;BME280;43656;57.746;11.780;2023-12-20T06:54:20;99173.34;;;3.44;100.00
57827;BME280;43656;57.746;11.780;2023-12-20T06:56:45;99195.75;;;3.56;100.00
57827;BME280;43656;57.746;11.780;2023-12-20T06:59:11;99190.81;;;3.53;100.00
57827;BME280;43656;57.746;11.780;2023-12-20T07:01:36;99199.59;;;3.53;100.00
57827;BME280;43656;57.746;11.780;2023-12-20T07:04:03;99183.22;;;3.50;100.00
57827;BME280;43656;57.746;11.780;2023-12-20T07:06:28;99189.56;;;3.49;100.00
57827;BME280;43656;57.746;11.780;2023-12-20T07:08:54;99188.72;;;3.48;100.00
57827;BME280;43656;57.746;11.780;2023-12-20T07:11:19;99184.22;;;3.49;100.00
57827;BME280;43656;57.746;11.780;2023-12-20T07:13:44;99182.22;;;3.51;100.00
57827;BME280;43656;57.746;11.780;2023-12-20T07:16:11;99183.22;;;3.50;100.00
57827;BME280;43656;57.746;11.780;2023-12-20T07:18:37;99181.97;;;3.46;100.00
57827;BME280;43656;57.746;11.780;2023-12-20T07:21:03;99163.88;;;3.35;100.00
57827;BME280;43656;57.746;11.780;2023-12-20T07:23:29;99179.09;;;3.47;100.00
57827;BME280;43656;57.746;11.780;2023-12-20T07:25:55;99178.47;;;3.45;100.00
57827;BME280;43656;57.746;11.780;2023-12-20T07:28:20;99189.13;;;3.45;100.00
57827;BME280;43656;57.746;11.780;2023-12-20T07:30:45;99190.31;;;3.43;100.00
57827;BME280;43656;57.746;11.780;2023-12-20T07:33:11;99186.59;;;3.37;100.00
57827;BME280;43656;57.746;11.780;2023-12-20T07:35:37;99194.75;;;3.36;100.00
57827;BME280;43656;57.746;11.780;2023-12-20T07:38:03;99156.13;;;3.12;100.00
57827;BME280;43656;57.746;11.780;2023-12-20T07:40:28;99177.69;;;3.23;100.00
57827;BME280;43656;57.746;11.780;2023-12-20T07:42:54;99177.69;;;3.23;100.00
57827;BME280;43656;57.746;11.780;2023-12-20T07:45:19;99185.91;;;3.28;100.00
57827;BME280;43656;57.746;11.780;2023-12-20T07:47:44;99177.69;;;3.23;100.00
57827;BME280;43656;57.746;11.780;2023-12-20T07:50:10;99179.31;;;3.24;100.00
57827;BME280;43656;57.746;11.780;2023-12-20T07:52:35;99177.06;;;3.21;100.00
57827;BME280;43656;57.746;11.780;2023-12-20T07:55:01;99179.72;;;3.21;100.00
57827;BME280;43656;57.746;11.780;2023-12-20T07:57:29;99181.75;;;3.19;100.00
57827;BME280;43656;57.746;11.780;2023-12-20T07:59:54;99171.50;;;3.16;100.00
57827;BME280;43656;57.746;11.780;2023-12-20T08:02:20;99177.88;;;3.22;100.00
57827;BME280;43656;57.746;11.780;2023-12-20T08:04:45;99182.81;;;3.25;100.00
57827;BME280;43656;57.746;11.780;2023-12-20T08:07:10;99162.31;;;3.19;100.00
57827;BME280;43656;57.746;11.780;2023-12-20T08:09:36;99176.91;;;3.29;100.00
57827;BME280;43656;57.746;11.780;2023-12-20T08:12:02;99180.81;;;3.34;100.00
57827;BME280;43656;57.746;11.780;2023-12-20T08:14:27;99181.66;;;3.34;100.00
57827;BME280;43656;57.746;11.780;2023-12-20T08:16:53;99181.47;;;3.36;100.00
57827;BME280;43656;57.746;11.780;2023-12-20T08:19:18;99173.28;;;3.37;100.00
57827;BME280;43656;57.746;11.780;2023-12-20T08:21:44;99175.94;;;3.37;100.00
57827;BME280;43656;57.746;11.780;2023-12-20T08:24:09;99174.75;;;3.40;100.00
57827;BME280;43656;57.746;11.780;2023-12-20T08:26:35;99173.34;;;3.44;100.00
57827;BME280;43656;57.746;11.780;2023-12-20T08:29:00;99165.94;;;3.39;100.00
57827;BME280;43656;57.746;11.780;2023-12-20T08:31:25;99172.53;;;3.43;100.00
57827;BME280;43656;57.746;11.780;2023-12-20T08:33:51;99164.38;;;3.45;100.00
57827;BME280;43656;57.746;11.780;2023-12-20T08:36:19;99140.38;;;3.38;100.00
57827;BME280;43656;57.746;11.780;2023-12-20T08:38:46;99168.31;;;3.56;100.00
57827;BME280;43656;57.746;11.780;2023-12-20T08:41:12;99172.22;;;3.60;100.00
57827;BME280;43656;57.746;11.780;2023-12-20T08:43:38;99171.41;;;3.59;100.00
57827;BME280;43656;57.746;11.780;2023-12-20T08:46:05;99143.72;;;3.47;100.00
57827;BME280;43656;57.746;11.780;2023-12-20T08:48:31;99126.25;;;3.38;100.00
57827;BME280;43656;57.746;11.780;2023-12-20T08:50:56;99154.38;;;3.53;100.00
57827;BME280;43656;57.746;11.780;2023-12-20T08:53:22;99161.22;;;3.63;100.00
57827;BME280;43656;57.746;11.780;2023-12-20T08:55:47;99163.09;;;3.69;100.00
57827;BME280;43656;57.746;11.780;2023-12-20T08:58:13;99140.91;;;3.55;100.00
57827;BME280;43656;57.746;11.780;2023-12-20T09:00:38;99147.44;;;3.52;100.00
57827;BME280;43656;57.746;11.780;2023-12-20T09:03:04;99158.16;;;3.66;100.00
57827;BME280;43656;57.746;11.780;2023-12-20T09:05:29;99155.13;;;3.69;100.00
57827;BME280;43656;57.746;11.780;2023-12-20T09:07:55;99156.75;;;3.70;100.00
57827;BME280;43656;57.746;11.780;2023-12-20T09:10:20;99126.84;;;3.61;100.00
57827;BME280;43656;57.746;11.780;2023-12-20T09:12:54;99156.38;;;3.73;100.00
57827;BME280;43656;57.746;11.780;2023-12-20T09:15:25;99147.59;;;3.79;100.00
57827;BME280;43656;57.746;11.780;2023-12-20T09:17:50;99147.59;;;3.79;100.00
57827;BME280;43656;57.746;11.780;2023-12-20T09:20:16;99147.63;;;3.86;100.00
57827;BME280;43656;57.746;11.780;2023-12-20T09:22:42;99130.47;;;3.88;100.00
57827;BME280;43656;57.746;11.780;2023-12-20T09:25:09;99144.84;;;4.00;100.00
57827;BME280;43656;57.746;11.780;2023-12-20T09:27:35;99126.03;;;4.02;100.00
57827;BME280;43656;57.746;11.780;2023-12-20T09:30:01;99134.69;;;4.11;100.00
57827;BME280;43656;57.746;11.780;2023-12-20T09:32:26;99125.66;;;4.12;100.00
57827;BME280;43656;57.746;11.780;2023-12-20T09:34:51;99134.50;;;4.19;100.00
57827;BME280;43656;57.746;11.780;2023-12-20T09:37:17;99109.69;;;4.12;100.00
57827;BME280;43656;57.746;11.780;2023-12-20T09:39:42;99127.97;;;4.28;100.00
57827;BME280;43656;57.746;11.780;2023-12-20T09:42:11;99137.59;;;4.29;100.00
57827;BME280;43656;57.746;11.780;2023-12-20T09:44:37;99133.31;;;4.28;100.00
57827;BME280;43656;57.746;11.780;2023-12-20T09:47:06;99128.78;;;4.29;100.00
57827;BME280;43656;57.746;11.780;2023-12-20T09:49:32;99132.50;;;4.28;100.00
57827;BME280;43656;57.746;11.780;2023-12-20T09:52:00;99135.16;;;4.28;100.00
57827;BME280;43656;57.746;11.780;2023-12-20T09:54:28;99131.63;;;4.27;100.00
57827;BME280;43656;57.746;11.780;2023-12-20T09:56:53;99131.84;;;4.26;100.00
57827;BME280;43656;57.746;11.780;2023-12-20T09:59:19;99125.91;;;4.23;100.00
57827;BME280;43656;57.746;11.780;2023-12-20T10:01:44;99112.97;;;4.14;100.00
57827;BME280;43656;57.746;11.780;2023-12-20T10:04:12;99113.41;;;4.17;100.00
57827;BME280;43656;57.746;11.780;2023-12-20T10:06:42;99110.94;;;4.16;100.00
57827;BME280;43656;57.746;11.780;2023-12-20T10:09:09;99111.34;;;4.19;100.00
57827;BME280;43656;57.746;11.780;2023-12-20T10:11:38;99096.41;;;4.18;100.00
57827;BME280;43656;57.746;11.780;2023-12-20T10:14:05;99090.78;;;4.00;100.00
57827;BME280;43656;57.746;11.780;2023-12-20T10:16:31;99104.78;;;4.15;100.00
57827;BME280;43656;57.746;11.780;2023-12-20T10:18:58;99037.88;;;3.70;100.00
57827;BME280;43656;57.746;11.780;2023-12-20T10:21:23;99079.19;;;4.08;100.00
57827;BME280;43656;57.746;11.780;2023-12-20T10:23:54;99091.28;;;4.23;100.00
57827;BME280;43656;57.746;11.780;2023-12-20T10:26:25;99096.84;;;4.29;100.00
57827;BME280;43656;57.746;11.780;2023-12-20T10:28:55;99069.38;;;4.15;100.00
57827;BME280;43656;57.746;11.780;2023-12-20T10:31:30;99095.44;;;4.39;100.00
57827;BME280;43656;57.746;11.780;2023-12-20T10:34:00;99095.69;;;4.51;100.00
57827;BME280;43656;57.746;11.780;2023-12-20T10:36:27;99089.56;;;4.57;100.00
57827;BME280;43656;57.746;11.780;2023-12-20T10:38:53;99081.97;;;4.61;100.00
57827;BME280;43656;57.746;11.780;2023-12-20T10:41:30;99082.97;;;4.66;100.00
57827;BME280;43656;57.746;11.780;2023-12-20T10:44:03;99053.88;;;4.58;100.00
57827;BME280;43656;57.746;11.780;2023-12-20T10:46:33;99072.97;;;4.75;100.00
57827;BME280;43656;57.746;11.780;2023-12-20T10:48:59;99068.03;;;4.79;100.00
57827;BME280;43656;57.746;11.780;2023-12-20T10:51:27;99062.09;;;4.83;100.00
57827;BME280;43656;57.746;11.780;2023-12-20T10:53:54;99072.56;;;4.85;100.00
57827;BME280;43656;57.746;11.780;2023-12-20T10:56:20;99067.00;;;4.86;100.00
57827;BME280;43656;57.746;11.780;2023-12-20T10:58:51;99072.56;;;4.85;100.00
57827;BME280;43656;57.746;11.780;2023-12-20T11:01:18;99075.00;;;4.80;100.00
57827;BME280;43656;57.746;11.780;2023-12-20T11:03:48;99062.31;;;4.75;100.00
57827;BME280;43656;57.746;11.780;2023-12-20T11:06:38;99056.75;;;4.77;100.00
57827;BME280;43656;57.746;11.780;2023-12-20T11:09:26;99048.97;;;4.82;100.00
57827;BME280;43656;57.746;11.780;2023-12-20T11:12:10;99052.06;;;4.85;100.00
57827;BME280;43656;57.746;11.780;2023-12-20T11:14:50;99047.13;;;4.82;100.00
57827;BME280;43656;57.746;11.780;2023-12-20T11:17:16;99030.53;;;4.80;100.00
57827;BME280;43656;57.746;11.780;2023-12-20T11:22:29;99043.88;;;4.87;100.00
57827;BME280;43656;57.746;11.780;2023-12-20T11:24:58;99037.50;;;4.88;100.00
57827;BME280;43656;57.746;11.780;2023-12-20T11:27:24;99020.91;;;4.79;100.00
57827;BME280;43656;57.746;11.780;2023-12-20T11:29:54;99035.44;;;4.90;100.00
57827;BME280;43656;57.746;11.780;2023-12-20T11:34:56;99033.63;;;4.84;100.00
57827;BME280;43656;57.746;11.780;2023-12-20T11:37:29;99017.00;;;4.68;100.00
57827;BME280;43656;57.746;11.780;2023-12-20T11:39:56;99031.97;;;4.83;100.00
57827;BME280;43656;57.746;11.780;2023-12-20T11:42:25;99030.53;;;4.80;100.00
57827;BME280;43656;57.746;11.780;2023-12-20T11:44:53;99030.75;;;4.72;100.00
57827;BME280;43656;57.746;11.780;2023-12-20T11:47:18;99029.69;;;4.66;100.00
57827;BME280;43656;57.746;11.780;2023-12-20T11:49:47;99039.34;;;4.61;100.00
57827;BME280;43656;57.746;11.780;2023-12-20T11:52:13;99025.81;;;4.62;100.00
57827;BME280;43656;57.746;11.780;2023-12-20T11:54:39;99035.25;;;4.65;100.00
57827;BME280;43656;57.746;11.780;2023-12-20T11:57:04;99023.78;;;4.64;100.00
57827;BME280;43656;57.746;11.780;2023-12-20T11:59:31;98994.47;;;4.51;100.00
57827;BME280;43656;57.746;11.780;2023-12-20T12:01:56;99028.06;;;4.65;100.00
57827;BME280;43656;57.746;11.780;2023-12-20T12:04:26;98990.59;;;4.54;100.00
57827;BME280;43656;57.746;11.780;2023-12-20T12:06:51;99019.25;;;4.71;100.00
57827;BME280;43656;57.746;11.780;2023-12-20T12:09:17;99013.72;;;4.73;100.00
57827;BME280;43656;57.746;11.780;2023-12-20T12:11:42;99017.81;;;4.69;100.00
57827;BME280;43656;57.746;11.780;2023-12-20T12:14:08;99023.97;;;4.69;100.00
57827;BME280;43656;57.746;11.780;2023-12-20T12:16:33;99027.44;;;4.70;100.00
57827;BME280;43656;57.746;11.780;2023-12-20T12:18:59;99015.78;;;4.64;100.00
57827;BME280;43656;57.746;11.780;2023-12-20T12:21:25;99031.16;;;4.69;100.00
57827;BME280;43656;57.746;11.780;2023-12-20T12:23:51;99030.53;;;4.74;100.00
57827;BME280;43656;57.746;11.780;2023-12-20T12:26:16;99023.78;;;4.64;100.00
57827;BME280;43656;57.746;11.780;2023-12-20T12:28:42;99046.09;;;4.70;100.00
57827;BME280;43656;57.746;11.780;2023-12-20T12:31:09;99028.69;;;4.54;100.00
57827;BME280;43656;57.746;11.780;2023-12-20T12:33:38;99029.28;;;4.63;100.00
57827;BME280;43656;57.746;11.780;2023-12-20T12:36:03;99045.91;;;4.58;100.00
57827;BME280;43656;57.746;11.780;2023-12-20T12:38:32;99037.50;;;4.61;100.00
57827;BME280;43656;57.746;11.780;2023-12-20T12:40:58;99041.78;;;4.56;100.00
57827;BME280;43656;57.746;11.780;2023-12-20T12:43:23;99042.59;;;4.56;100.00
57827;BME280;43656;57.746;11.780;2023-12-20T12:45:49;99032.34;;;4.53;100.00
57827;BME280;43656;57.746;11.780;2023-12-20T12:48:15;99027.03;;;4.46;100.00
57827;BME280;43656;57.746;11.780;2023-12-20T12:50:40;99020.47;;;4.42;100.00